Minneapolis, Minnesota
Traffic Map
Current Weather Conditions
Minneapolis, Minnesota
Few Clouds
Few Clouds
24°
Feels Like: 24°
Wind Chill: 24° Ceiling: Unl
Heat Index: 24° Visibility: 10mi
Dew Point: 16° Wind: 3mph
Humidity: 60% Direction: 280° (W)
Pressure: 29.84in Gusts: 0mph
Raw Report DataKMSP 230453Z 28003KT 10SM FEW120 24/16 A2984 RMK AO2 SLP098 T02390156
Traffic Incident Summary
Active as of:
Severity:
Category:
InformationThere was an issue retrieving the traffic information for this location. Please try a different location or try again shortly.
Advertisements
Track Severe Weather on mobile